O57 weather

Bryant Field
Bridgeport, California, United States

Public forecast

Using degrees Fahrenheit for public forecast. Weather courtesy of forecast.io.

Closest aviation weather report (METAR) to Bryant Field

Closest report is Mammoth Yosemite Airport, 42.5 nm (78.7 km) SSE. Retrieved 2020/07/05 00:36 UTC (1 minute ago):

KMMH 050036Z AUTO 29021G26KT 10SM CLR 26/M06 A3028 RMK AO2

Closest aviation forecast (TAF) to Bryant Field

Closest forecast is Mammoth Yosemite Airport, 42.5 nm (78.7 km) SSE. Retrieved 2020-07-05 00:22 UTC (15 minutes ago):

TAF KMMH 042320Z 0500/0524 30018G28KT P6SM SKC FM050600 VRB04KT P6SM SKC FM052100 24014G25KT P6SM SKC